sensor_id;sensor_type;location;lat;lon;timestamp;temperature;humidity
33863;DHT22;20158;51.436;-2.742;2023-04-08T00:02:04;9.10;44.00
33863;DHT22;20158;51.436;-2.742;2023-04-08T00:04:30;9.10;44.10
33863;DHT22;20158;51.436;-2.742;2023-04-08T00:06:56;9.00;44.00
33863;DHT22;20158;51.436;-2.742;2023-04-08T00:09:22;9.00;44.10
33863;DHT22;20158;51.436;-2.742;2023-04-08T00:11:48;9.00;44.20
33863;DHT22;20158;51.436;-2.742;2023-04-08T00:14:14;8.90;44.10
33863;DHT22;20158;51.436;-2.742;2023-04-08T00:16:40;8.90;44.20
33863;DHT22;20158;51.436;-2.742;2023-04-08T00:19:06;8.90;44.30
33863;DHT22;20158;51.436;-2.742;2023-04-08T00:21:32;8.80;44.20
33863;DHT22;20158;51.436;-2.742;2023-04-08T00:23:57;8.80;44.40
33863;DHT22;20158;51.436;-2.742;2023-04-08T00:26:23;8.80;44.40
33863;DHT22;20158;51.436;-2.742;2023-04-08T00:28:49;8.70;44.30
33863;DHT22;20158;51.436;-2.742;2023-04-08T00:31:15;8.70;44.40
33863;DHT22;20158;51.436;-2.742;2023-04-08T00:33:41;8.60;44.90
33863;DHT22;20158;51.436;-2.742;2023-04-08T00:36:09;8.60;44.50
33863;DHT22;20158;51.436;-2.742;2023-04-08T00:38:38;8.60;44.60
33863;DHT22;20158;51.436;-2.742;2023-04-08T00:41:03;8.60;44.60
33863;DHT22;20158;51.436;-2.742;2023-04-08T00:43:30;8.50;44.50
33863;DHT22;20158;51.436;-2.742;2023-04-08T00:45:56;8.50;44.60
33863;DHT22;20158;51.436;-2.742;2023-04-08T00:48:21;8.40;44.60
33863;DHT22;20158;51.436;-2.742;2023-04-08T00:50:47;8.40;44.60
33863;DHT22;20158;51.436;-2.742;2023-04-08T00:53:16;8.40;44.70
33863;DHT22;20158;51.436;-2.742;2023-04-08T00:55:43;8.40;44.80
33863;DHT22;20158;51.436;-2.742;2023-04-08T00:58:10;8.30;44.70
33863;DHT22;20158;51.436;-2.742;2023-04-08T01:00:41;8.30;44.80
33863;DHT22;20158;51.436;-2.742;2023-04-08T01:06:21;8.30;45.00
33863;DHT22;20158;51.436;-2.742;2023-04-08T01:08:50;8.20;44.70
33863;DHT22;20158;51.436;-2.742;2023-04-08T01:11:17;8.20;44.70
33863;DHT22;20158;51.436;-2.742;2023-04-08T01:13:44;8.10;44.60
33863;DHT22;20158;51.436;-2.742;2023-04-08T01:16:13;8.10;44.70
33863;DHT22;20158;51.436;-2.742;2023-04-08T01:18:42;8.10;44.90
33863;DHT22;20158;51.436;-2.742;2023-04-08T01:21:11;8.00;44.80
33863;DHT22;20158;51.436;-2.742;2023-04-08T01:23:59;8.00;45.00
33863;DHT22;20158;51.436;-2.742;2023-04-08T01:26:27;8.00;45.20
33863;DHT22;20158;51.436;-2.742;2023-04-08T01:28:56;8.00;45.10
33863;DHT22;20158;51.436;-2.742;2023-04-08T01:31:24;7.90;45.10
33863;DHT22;20158;51.436;-2.742;2023-04-08T01:33:51;7.90;45.10
33863;DHT22;20158;51.436;-2.742;2023-04-08T01:36:19;7.90;45.20
33863;DHT22;20158;51.436;-2.742;2023-04-08T01:38:47;7.90;45.30
33863;DHT22;20158;51.436;-2.742;2023-04-08T01:41:15;7.80;45.20
33863;DHT22;20158;51.436;-2.742;2023-04-08T01:43:42;7.80;45.30
33863;DHT22;20158;51.436;-2.742;2023-04-08T01:46:10;7.80;45.40
33863;DHT22;20158;51.436;-2.742;2023-04-08T01:48:39;7.70;45.30
33863;DHT22;20158;51.436;-2.742;2023-04-08T01:51:05;7.70;45.40
33863;DHT22;20158;51.436;-2.742;2023-04-08T01:53:32;7.70;45.50
33863;DHT22;20158;51.436;-2.742;2023-04-08T01:56:06;7.60;45.30
33863;DHT22;20158;51.436;-2.742;2023-04-08T01:58:38;7.60;46.00
33863;DHT22;20158;51.436;-2.742;2023-04-08T02:01:10;7.60;45.50
33863;DHT22;20158;51.436;-2.742;2023-04-08T02:03:37;7.50;45.40
33863;DHT22;20158;51.436;-2.742;2023-04-08T02:06:03;7.50;45.50
33863;DHT22;20158;51.436;-2.742;2023-04-08T02:08:29;7.50;45.60
33863;DHT22;20158;51.436;-2.742;2023-04-08T02:10:57;7.40;45.50
33863;DHT22;20158;51.436;-2.742;2023-04-08T02:13:23;7.40;45.60
33863;DHT22;20158;51.436;-2.742;2023-04-08T02:16:01;7.40;45.60
33863;DHT22;20158;51.436;-2.742;2023-04-08T02:18:29;7.40;45.80
33863;DHT22;20158;51.436;-2.742;2023-04-08T02:21:04;7.30;45.60
33863;DHT22;20158;51.436;-2.742;2023-04-08T02:23:35;7.30;45.60
33863;DHT22;20158;51.436;-2.742;2023-04-08T02:26:04;7.30;45.80
33863;DHT22;20158;51.436;-2.742;2023-04-08T02:28:32;7.30;45.80
33863;DHT22;20158;51.436;-2.742;2023-04-08T02:31:01;7.30;45.90
33863;DHT22;20158;51.436;-2.742;2023-04-08T02:33:28;7.20;45.80
33863;DHT22;20158;51.436;-2.742;2023-04-08T02:35:55;7.20;45.90
33863;DHT22;20158;51.436;-2.742;2023-04-08T02:38:22;7.20;45.90
33863;DHT22;20158;51.436;-2.742;2023-04-08T02:40:49;7.20;46.00
33863;DHT22;20158;51.436;-2.742;2023-04-08T02:43:16;7.20;46.10
33863;DHT22;20158;51.436;-2.742;2023-04-08T02:45:42;7.20;46.10
33863;DHT22;20158;51.436;-2.742;2023-04-08T02:48:08;7.10;46.00
33863;DHT22;20158;51.436;-2.742;2023-04-08T02:50:35;7.10;46.10
33863;DHT22;20158;51.436;-2.742;2023-04-08T02:53:01;7.10;46.20
33863;DHT22;20158;51.436;-2.742;2023-04-08T02:55:29;7.10;46.30
33863;DHT22;20158;51.436;-2.742;2023-04-08T02:57:55;7.00;46.20
33863;DHT22;20158;51.436;-2.742;2023-04-08T03:00:21;7.00;46.20
33863;DHT22;20158;51.436;-2.742;2023-04-08T03:02:47;7.00;46.30
33863;DHT22;20158;51.436;-2.742;2023-04-08T03:05:13;6.90;46.20
33863;DHT22;20158;51.436;-2.742;2023-04-08T03:07:40;6.90;46.20
33863;DHT22;20158;51.436;-2.742;2023-04-08T03:10:07;6.90;46.30
33863;DHT22;20158;51.436;-2.742;2023-04-08T03:12:33;6.90;46.40
33863;DHT22;20158;51.436;-2.742;2023-04-08T03:14:59;6.90;46.50
33863;DHT22;20158;51.436;-2.742;2023-04-08T03:17:26;6.90;46.50
33863;DHT22;20158;51.436;-2.742;2023-04-08T03:19:52;6.90;46.60
33863;DHT22;20158;51.436;-2.742;2023-04-08T03:22:18;6.90;46.70
33863;DHT22;20158;51.436;-2.742;2023-04-08T03:24:44;6.80;46.50
33863;DHT22;20158;51.436;-2.742;2023-04-08T03:27:10;6.90;46.80
33863;DHT22;20158;51.436;-2.742;2023-04-08T03:29:37;6.80;46.60
33863;DHT22;20158;51.436;-2.742;2023-04-08T03:32:03;6.80;47.20
33863;DHT22;20158;51.436;-2.742;2023-04-08T03:34:29;6.80;46.80
33863;DHT22;20158;51.436;-2.742;2023-04-08T03:36:54;6.70;46.60
33863;DHT22;20158;51.436;-2.742;2023-04-08T03:39:20;6.70;46.60
33863;DHT22;20158;51.436;-2.742;2023-04-08T03:41:47;6.70;46.70
33863;DHT22;20158;51.436;-2.742;2023-04-08T03:44:13;6.70;46.80
33863;DHT22;20158;51.436;-2.742;2023-04-08T03:46:38;6.70;46.80
33863;DHT22;20158;51.436;-2.742;2023-04-08T03:49:04;6.70;46.90
33863;DHT22;20158;51.436;-2.742;2023-04-08T03:51:30;6.70;47.00
33863;DHT22;20158;51.436;-2.742;2023-04-08T03:53:56;6.60;46.80
33863;DHT22;20158;51.436;-2.742;2023-04-08T03:56:22;6.60;46.90
33863;DHT22;20158;51.436;-2.742;2023-04-08T03:58:49;6.60;47.00
33863;DHT22;20158;51.436;-2.742;2023-04-08T04:01:15;6.60;47.00
33863;DHT22;20158;51.436;-2.742;2023-04-08T04:03:41;6.60;47.10
33863;DHT22;20158;51.436;-2.742;2023-04-08T04:06:07;6.50;47.00
33863;DHT22;20158;51.436;-2.742;2023-04-08T04:08:33;6.60;47.10
33863;DHT22;20158;51.436;-2.742;2023-04-08T04:10:59;6.60;47.20
33863;DHT22;20158;51.436;-2.742;2023-04-08T04:13:25;6.60;47.30
33863;DHT22;20158;51.436;-2.742;2023-04-08T04:15:51;6.50;47.10
33863;DHT22;20158;51.436;-2.742;2023-04-08T04:18:17;6.60;47.30
33863;DHT22;20158;51.436;-2.742;2023-04-08T04:20:42;6.60;47.30
33863;DHT22;20158;51.436;-2.742;2023-04-08T04:23:09;6.60;47.30
33863;DHT22;20158;51.436;-2.742;2023-04-08T04:25:35;6.60;47.40
33863;DHT22;20158;51.436;-2.742;2023-04-08T04:28:01;6.60;47.40
33863;DHT22;20158;51.436;-2.742;2023-04-08T04:30:28;6.60;47.50
33863;DHT22;20158;51.436;-2.742;2023-04-08T04:32:53;6.60;47.50
33863;DHT22;20158;51.436;-2.742;2023-04-08T04:35:20;6.60;47.50
33863;DHT22;20158;51.436;-2.742;2023-04-08T04:37:46;6.60;47.50
33863;DHT22;20158;51.436;-2.742;2023-04-08T04:40:14;6.60;47.60
33863;DHT22;20158;51.436;-2.742;2023-04-08T04:42:40;6.50;47.50
33863;DHT22;20158;51.436;-2.742;2023-04-08T04:45:07;6.50;47.50
33863;DHT22;20158;51.436;-2.742;2023-04-08T04:47:34;6.50;47.60
33863;DHT22;20158;51.436;-2.742;2023-04-08T04:49:59;6.60;47.80
33863;DHT22;20158;51.436;-2.742;2023-04-08T04:52:25;6.50;47.60
33863;DHT22;20158;51.436;-2.742;2023-04-08T04:54:51;6.50;47.70
33863;DHT22;20158;51.436;-2.742;2023-04-08T04:57:17;6.50;47.70
33863;DHT22;20158;51.436;-2.742;2023-04-08T04:59:43;6.50;47.70
33863;DHT22;20158;51.436;-2.742;2023-04-08T05:02:09;6.50;47.80
33863;DHT22;20158;51.436;-2.742;2023-04-08T05:04:35;6.50;47.80
33863;DHT22;20158;51.436;-2.742;2023-04-08T05:07:01;6.40;47.70
33863;DHT22;20158;51.436;-2.742;2023-04-08T05:09:28;6.50;47.90
33863;DHT22;20158;51.436;-2.742;2023-04-08T05:11:54;6.40;47.80
33863;DHT22;20158;51.436;-2.742;2023-04-08T05:14:20;6.40;47.80
33863;DHT22;20158;51.436;-2.742;2023-04-08T05:16:46;6.30;47.70
33863;DHT22;20158;51.436;-2.742;2023-04-08T05:19:12;6.40;48.00
33863;DHT22;20158;51.436;-2.742;2023-04-08T05:21:38;6.40;48.00
33863;DHT22;20158;51.436;-2.742;2023-04-08T05:24:03;6.30;47.90
33863;DHT22;20158;51.436;-2.742;2023-04-08T05:26:30;6.30;47.90
33863;DHT22;20158;51.436;-2.742;2023-04-08T05:28:56;6.30;48.00
33863;DHT22;20158;51.436;-2.742;2023-04-08T05:31:22;6.30;48.00
33863;DHT22;20158;51.436;-2.742;2023-04-08T05:33:48;6.30;48.00
33863;DHT22;20158;51.436;-2.742;2023-04-08T05:36:14;6.30;48.00
33863;DHT22;20158;51.436;-2.742;2023-04-08T05:38:40;6.30;48.00
33863;DHT22;20158;51.436;-2.742;2023-04-08T05:41:07;6.40;48.20
33863;DHT22;20158;51.436;-2.742;2023-04-08T05:43:33;6.40;48.20
33863;DHT22;20158;51.436;-2.742;2023-04-08T05:46:04;6.40;48.10
33863;DHT22;20158;51.436;-2.742;2023-04-08T05:48:30;6.40;48.10
33863;DHT22;20158;51.436;-2.742;2023-04-08T05:50:56;6.40;48.00
33863;DHT22;20158;51.436;-2.742;2023-04-08T05:53:22;6.40;47.90
33863;DHT22;20158;51.436;-2.742;2023-04-08T05:55:49;6.50;48.10
33863;DHT22;20158;51.436;-2.742;2023-04-08T05:58:15;6.50;48.30
33863;DHT22;20158;51.436;-2.742;2023-04-08T06:00:41;6.60;48.80
33863;DHT22;20158;51.436;-2.742;2023-04-08T06:03:07;6.70;49.20
33863;DHT22;20158;51.436;-2.742;2023-04-08T06:05:33;6.80;49.60
33863;DHT22;20158;51.436;-2.742;2023-04-08T06:07:59;7.10;50.60
33863;DHT22;20158;51.436;-2.742;2023-04-08T06:10:25;7.30;51.00
33863;DHT22;20158;51.436;-2.742;2023-04-08T06:12:51;7.70;51.50
33863;DHT22;20158;51.436;-2.742;2023-04-08T06:15:17;8.10;51.90
33863;DHT22;20158;51.436;-2.742;2023-04-08T06:17:43;8.60;52.20
33863;DHT22;20158;51.436;-2.742;2023-04-08T06:20:09;8.90;52.00
33863;DHT22;20158;51.436;-2.742;2023-04-08T06:22:35;9.30;52.20
33863;DHT22;20158;51.436;-2.742;2023-04-08T06:25:01;9.60;52.10
33863;DHT22;20158;51.436;-2.742;2023-04-08T06:27:27;9.90;52.10
33863;DHT22;20158;51.436;-2.742;2023-04-08T06:29:53;10.10;52.10
33863;DHT22;20158;51.436;-2.742;2023-04-08T06:32:20;10.30;52.20
33863;DHT22;20158;51.436;-2.742;2023-04-08T06:34:47;10.50;52.30
33863;DHT22;20158;51.436;-2.742;2023-04-08T06:37:13;10.80;52.70
33863;DHT22;20158;51.436;-2.742;2023-04-08T06:39:39;11.00;52.80
33863;DHT22;20158;51.436;-2.742;2023-04-08T06:42:05;11.30;53.00
33863;DHT22;20158;51.436;-2.742;2023-04-08T06:44:38;11.70;53.60
33863;DHT22;20158;51.436;-2.742;2023-04-08T06:47:04;12.10;53.40
33863;DHT22;20158;51.436;-2.742;2023-04-08T06:49:30;12.40;52.90
33863;DHT22;20158;51.436;-2.742;2023-04-08T06:51:56;12.60;52.90
33863;DHT22;20158;51.436;-2.742;2023-04-08T06:54:21;12.90;53.10
33863;DHT22;20158;51.436;-2.742;2023-04-08T06:56:47;13.20;53.10
33863;DHT22;20158;51.436;-2.742;2023-04-08T06:59:13;13.40;52.80
33863;DHT22;20158;51.436;-2.742;2023-04-08T07:01:39;13.50;52.60
33863;DHT22;20158;51.436;-2.742;2023-04-08T07:04:06;13.60;52.60
33863;DHT22;20158;51.436;-2.742;2023-04-08T07:06:32;13.70;52.40
33863;DHT22;20158;51.436;-2.742;2023-04-08T07:08:58;13.70;52.20
33863;DHT22;20158;51.436;-2.742;2023-04-08T07:11:24;13.70;52.00
33863;DHT22;20158;51.436;-2.742;2023-04-08T07:13:50;13.60;51.70
33863;DHT22;20158;51.436;-2.742;2023-04-08T07:16:17;13.60;51.70
33863;DHT22;20158;51.436;-2.742;2023-04-08T07:18:42;13.50;51.50
33863;DHT22;20158;51.436;-2.742;2023-04-08T07:21:08;13.40;51.40
33863;DHT22;20158;51.436;-2.742;2023-04-08T07:23:36;13.40;51.50
33863;DHT22;20158;51.436;-2.742;2023-04-08T07:26:03;13.30;51.40
33863;DHT22;20158;51.436;-2.742;2023-04-08T07:28:33;13.20;51.30
33863;DHT22;20158;51.436;-2.742;2023-04-08T07:31:29;13.10;51.30
33863;DHT22;20158;51.436;-2.742;2023-04-08T07:33:55;13.10;51.30
33863;DHT22;20158;51.436;-2.742;2023-04-08T07:36:21;13.10;51.40
33863;DHT22;20158;51.436;-2.742;2023-04-08T07:38:47;13.00;51.20
33863;DHT22;20158;51.436;-2.742;2023-04-08T07:41:13;13.00;51.20
33863;DHT22;20158;51.436;-2.742;2023-04-08T07:43:39;13.00;51.20
33863;DHT22;20158;51.436;-2.742;2023-04-08T07:46:05;13.00;51.10
33863;DHT22;20158;51.436;-2.742;2023-04-08T07:48:32;13.00;51.10
33863;DHT22;20158;51.436;-2.742;2023-04-08T07:51:02;13.00;51.00
33863;DHT22;20158;51.436;-2.742;2023-04-08T07:53:29;13.00;50.90
33863;DHT22;20158;51.436;-2.742;2023-04-08T07:55:56;13.10;51.00
33863;DHT22;20158;51.436;-2.742;2023-04-08T07:58:22;13.10;51.00
33863;DHT22;20158;51.436;-2.742;2023-04-08T08:00:50;13.20;51.00
33863;DHT22;20158;51.436;-2.742;2023-04-08T08:03:16;13.30;51.10
33863;DHT22;20158;51.436;-2.742;2023-04-08T08:05:42;13.40;51.00
33863;DHT22;20158;51.436;-2.742;2023-04-08T08:08:08;13.40;50.70
33863;DHT22;20158;51.436;-2.742;2023-04-08T08:10:39;13.40;50.50
33863;DHT22;20158;51.436;-2.742;2023-04-08T08:13:06;13.50;50.60
33863;DHT22;20158;51.436;-2.742;2023-04-08T08:15:32;13.50;50.40
33863;DHT22;20158;51.436;-2.742;2023-04-08T08:17:58;13.50;50.20
33863;DHT22;20158;51.436;-2.742;2023-04-08T08:20:24;13.60;50.20
33863;DHT22;20158;51.436;-2.742;2023-04-08T08:22:51;13.70;50.20
33863;DHT22;20158;51.436;-2.742;2023-04-08T08:25:17;13.70;50.00
33863;DHT22;20158;51.436;-2.742;2023-04-08T08:27:43;13.80;50.10
33863;DHT22;20158;51.436;-2.742;2023-04-08T08:30:10;13.80;49.90
33863;DHT22;20158;51.436;-2.742;2023-04-08T08:32:36;13.80;49.70
33863;DHT22;20158;51.436;-2.742;2023-04-08T08:35:02;14.00;50.00
33863;DHT22;20158;51.436;-2.742;2023-04-08T08:37:28;14.00;49.70
33863;DHT22;20158;51.436;-2.742;2023-04-08T08:39:54;14.10;49.80
33863;DHT22;20158;51.436;-2.742;2023-04-08T08:42:21;14.20;49.80
33863;DHT22;20158;51.436;-2.742;2023-04-08T08:44:48;14.20;49.60
33863;DHT22;20158;51.436;-2.742;2023-04-08T08:47:17;14.30;49.70
33863;DHT22;20158;51.436;-2.742;2023-04-08T08:49:44;14.30;49.50
33863;DHT22;20158;51.436;-2.742;2023-04-08T08:52:11;14.40;49.60
33863;DHT22;20158;51.436;-2.742;2023-04-08T08:54:40;14.40;49.50
33863;DHT22;20158;51.436;-2.742;2023-04-08T08:57:16;14.40;49.40
33863;DHT22;20158;51.436;-2.742;2023-04-08T08:59:46;14.50;49.40
33863;DHT22;20158;51.436;-2.742;2023-04-08T09:02:25;14.60;49.50
33863;DHT22;20158;51.436;-2.742;2023-04-08T09:05:01;14.60;49.30
33863;DHT22;20158;51.436;-2.742;2023-04-08T09:07:29;14.70;49.40
33863;DHT22;20158;51.436;-2.742;2023-04-08T09:09:56;14.80;50.00
33863;DHT22;20158;51.436;-2.742;2023-04-08T09:12:23;14.90;49.40
33863;DHT22;20158;51.436;-2.742;2023-04-08T09:14:50;15.00;49.40
33863;DHT22;20158;51.436;-2.742;2023-04-08T09:17:31;15.10;49.40
33863;DHT22;20158;51.436;-2.742;2023-04-08T09:20:09;15.30;49.50
33863;DHT22;20158;51.436;-2.742;2023-04-08T09:22:56;15.40;49.50
33863;DHT22;20158;51.436;-2.742;2023-04-08T09:25:23;15.60;49.60
33863;DHT22;20158;51.436;-2.742;2023-04-08T09:27:50;15.80;49.60
33863;DHT22;20158;51.436;-2.742;2023-04-08T09:30:17;16.00;49.70
33863;DHT22;20158;51.436;-2.742;2023-04-08T09:32:56;16.20;49.70
33863;DHT22;20158;51.436;-2.742;2023-04-08T09:35:23;16.40;49.60
33863;DHT22;20158;51.436;-2.742;2023-04-08T09:37:50;16.60;49.60
33863;DHT22;20158;51.436;-2.742;2023-04-08T09:40:17;16.90;49.80
33863;DHT22;20158;51.436;-2.742;2023-04-08T09:42:45;17.00;49.60
33863;DHT22;20158;51.436;-2.742;2023-04-08T09:45:14;17.20;49.70
33863;DHT22;20158;51.436;-2.742;2023-04-08T09:47:56;17.40;49.60
33863;DHT22;20158;51.436;-2.742;2023-04-08T09:50:26;17.50;49.30
33863;DHT22;20158;51.436;-2.742;2023-04-08T09:53:01;17.70;49.50
33863;DHT22;20158;51.436;-2.742;2023-04-08T09:55:33;17.80;49.30
33863;DHT22;20158;51.436;-2.742;2023-04-08T09:58:06;18.00;49.30
33863;DHT22;20158;51.436;-2.742;2023-04-08T10:00:45;18.10;49.10
33863;DHT22;20158;51.436;-2.742;2023-04-08T10:05:52;18.40;49.00
33863;DHT22;20158;51.436;-2.742;2023-04-08T10:08:18;18.50;48.90
33863;DHT22;20158;51.436;-2.742;2023-04-08T10:10:45;18.50;48.70
33863;DHT22;20158;51.436;-2.742;2023-04-08T10:13:11;18.60;48.70
33863;DHT22;20158;51.436;-2.742;2023-04-08T10:15:38;18.70;48.60
33863;DHT22;20158;51.436;-2.742;2023-04-08T10:23:14;18.90;48.50
33863;DHT22;20158;51.436;-2.742;2023-04-08T10:25:46;19.00;48.60
33863;DHT22;20158;51.436;-2.742;2023-04-08T10:30:55;19.10;48.50
33863;DHT22;20158;51.436;-2.742;2023-04-08T10:38:42;19.20;48.40
33863;DHT22;20158;51.436;-2.742;2023-04-08T10:41:11;19.30;48.40
33863;DHT22;20158;51.436;-2.742;2023-04-08T10:43:46;19.30;48.20
33863;DHT22;20158;51.436;-2.742;2023-04-08T10:46:12;19.40;48.40
33863;DHT22;20158;51.436;-2.742;2023-04-08T10:48:38;19.40;48.20
33863;DHT22;20158;51.436;-2.742;2023-04-08T10:51:04;19.50;48.30
33863;DHT22;20158;51.436;-2.742;2023-04-08T10:53:35;19.50;48.10
33863;DHT22;20158;51.436;-2.742;2023-04-08T10:56:04;19.60;48.10
33863;DHT22;20158;51.436;-2.742;2023-04-08T10:58:32;19.70;48.10
33863;DHT22;20158;51.436;-2.742;2023-04-08T11:01:06;19.80;48.10
33863;DHT22;20158;51.436;-2.742;2023-04-08T11:03:33;19.80;47.90
33863;DHT22;20158;51.436;-2.742;2023-04-08T11:06:02;19.90;47.90
33863;DHT22;20158;51.436;-2.742;2023-04-08T11:08:29;19.90;47.60
33863;DHT22;20158;51.436;-2.742;2023-04-08T11:10:55;20.00;47.40
33863;DHT22;20158;51.436;-2.742;2023-04-08T11:13:23;20.10;47.40
33863;DHT22;20158;51.436;-2.742;2023-04-08T11:15:49;20.20;47.40
33863;DHT22;20158;51.436;-2.742;2023-04-08T11:18:16;20.30;47.30
33863;DHT22;20158;51.436;-2.742;2023-04-08T11:20:45;20.40;47.20
33863;DHT22;20158;51.436;-2.742;2023-04-08T11:23:15;20.50;47.10
33863;DHT22;20158;51.436;-2.742;2023-04-08T11:25:42;20.50;46.90
33863;DHT22;20158;51.436;-2.742;2023-04-08T11:28:13;20.60;46.80
33863;DHT22;20158;51.436;-2.742;2023-04-08T11:30:40;20.80;46.90
33863;DHT22;20158;51.436;-2.742;2023-04-08T11:33:06;20.90;46.80
33863;DHT22;20158;51.436;-2.742;2023-04-08T11:35:34;21.10;46.90
33863;DHT22;20158;51.436;-2.742;2023-04-08T11:38:03;21.20;46.70
33863;DHT22;20158;51.436;-2.742;2023-04-08T11:40:29;21.40;46.80
33863;DHT22;20158;51.436;-2.742;2023-04-08T11:42:56;21.50;46.70
33863;DHT22;20158;51.436;-2.742;2023-04-08T11:45:22;21.60;46.70
33863;DHT22;20158;51.436;-2.742;2023-04-08T11:47:48;21.70;46.70
33863;DHT22;20158;51.436;-2.742;2023-04-08T11:50:26;21.80;46.70
33863;DHT22;20158;51.436;-2.742;2023-04-08T11:52:54;22.00;46.60
33863;DHT22;20158;51.436;-2.742;2023-04-08T11:57:53;22.10;45.90
33863;DHT22;20158;51.436;-2.742;2023-04-08T12:00:19;22.00;45.40
33863;DHT22;20158;51.436;-2.742;2023-04-08T12:02:46;21.90;45.00
33863;DHT22;20158;51.436;-2.742;2023-04-08T12:05:14;21.80;44.80
33863;DHT22;20158;51.436;-2.742;2023-04-08T12:07:41;21.70;44.30
33863;DHT22;20158;51.436;-2.742;2023-04-08T12:10:09;21.50;43.60
33863;DHT22;20158;51.436;-2.742;2023-04-08T12:12:36;21.40;43.40
33863;DHT22;20158;51.436;-2.742;2023-04-08T12:15:03;21.40;43.30
33863;DHT22;20158;51.436;-2.742;2023-04-08T12:17:29;21.30;42.90
33863;DHT22;20158;51.436;-2.742;2023-04-08T12:19:55;21.30;42.60
33863;DHT22;20158;51.436;-2.742;2023-04-08T12:22:21;21.20;42.40
33863;DHT22;20158;51.436;-2.742;2023-04-08T12:24:47;21.10;42.00
33863;DHT22;20158;51.436;-2.742;2023-04-08T12:27:13;21.00;41.80
33863;DHT22;20158;51.436;-2.742;2023-04-08T12:29:42;21.00;41.60
33863;DHT22;20158;51.436;-2.742;2023-04-08T12:32:08;20.90;41.20
33863;DHT22;20158;51.436;-2.742;2023-04-08T12:34:34;21.00;41.40
33863;DHT22;20158;51.436;-2.742;2023-04-08T12:37:00;21.10;41.60
33863;DHT22;20158;51.436;-2.742;2023-04-08T12:39:27;21.10;41.30
33863;DHT22;20158;51.436;-2.742;2023-04-08T12:41:53;21.20;41.20
33863;DHT22;20158;51.436;-2.742;2023-04-08T12:44:19;21.20;40.80
33863;DHT22;20158;51.436;-2.742;2023-04-08T12:46:45;21.20;40.60
33863;DHT22;20158;51.436;-2.742;2023-04-08T12:49:11;21.20;40.50
33863;DHT22;20158;51.436;-2.742;2023-04-08T12:51:37;21.30;40.70
33863;DHT22;20158;51.436;-2.742;2023-04-08T12:54:04;21.30;40.60
33863;DHT22;20158;51.436;-2.742;2023-04-08T12:56:31;21.40;40.60
33863;DHT22;20158;51.436;-2.742;2023-04-08T12:58:57;21.40;40.30
33863;DHT22;20158;51.436;-2.742;2023-04-08T13:01:23;21.40;40.00
33863;DHT22;20158;51.436;-2.742;2023-04-08T13:03:49;21.50;40.00
33863;DHT22;20158;51.436;-2.742;2023-04-08T13:06:15;21.50;39.80
33863;DHT22;20158;51.436;-2.742;2023-04-08T13:08:41;21.50;39.70
33863;DHT22;20158;51.436;-2.742;2023-04-08T13:11:07;21.50;39.50
33863;DHT22;20158;51.436;-2.742;2023-04-08T13:13:34;21.50;39.20
33863;DHT22;20158;51.436;-2.742;2023-04-08T13:16:00;21.50;39.10
33863;DHT22;20158;51.436;-2.742;2023-04-08T13:18:26;21.60;39.20
33863;DHT22;20158;51.436;-2.742;2023-04-08T13:20:52;21.70;39.30
33863;DHT22;20158;51.436;-2.742;2023-04-08T13:23:19;21.80;39.20
33863;DHT22;20158;51.436;-2.742;2023-04-08T13:25:46;21.80;38.90
33863;DHT22;20158;51.436;-2.742;2023-04-08T13:28:13;21.80;38.70
33863;DHT22;20158;51.436;-2.742;2023-04-08T13:30:39;21.70;38.50
33863;DHT22;20158;51.436;-2.742;2023-04-08T13:33:05;21.50;38.30
33863;DHT22;20158;51.436;-2.742;2023-04-08T13:35:31;21.30;38.20
33863;DHT22;20158;51.436;-2.742;2023-04-08T13:37:57;21.10;38.10
33863;DHT22;20158;51.436;-2.742;2023-04-08T13:40:23;21.00;38.10
33863;DHT22;20158;51.436;-2.742;2023-04-08T13:42:48;21.00;38.10
33863;DHT22;20158;51.436;-2.742;2023-04-08T13:45:14;21.10;38.00
33863;DHT22;20158;51.436;-2.742;2023-04-08T13:47:40;21.20;37.90
33863;DHT22;20158;51.436;-2.742;2023-04-08T13:50:07;21.20;37.90
33863;DHT22;20158;51.436;-2.742;2023-04-08T13:52:33;21.10;37.70
33863;DHT22;20158;51.436;-2.742;2023-04-08T13:54:59;21.00;37.50
33863;DHT22;20158;51.436;-2.742;2023-04-08T13:57:25;21.00;37.50
33863;DHT22;20158;51.436;-2.742;2023-04-08T13:59:51;21.00;37.50
33863;DHT22;20158;51.436;-2.742;2023-04-08T14:02:17;21.00;37.30
33863;DHT22;20158;51.436;-2.742;2023-04-08T14:04:43;20.90;37.00
33863;DHT22;20158;51.436;-2.742;2023-04-08T14:07:12;21.00;37.20
33863;DHT22;20158;51.436;-2.742;2023-04-08T14:09:38;21.10;37.30
33863;DHT22;20158;51.436;-2.742;2023-04-08T14:12:04;21.30;37.40
33863;DHT22;20158;51.436;-2.742;2023-04-08T14:14:30;21.40;37.40
33863;DHT22;20158;51.436;-2.742;2023-04-08T14:16:56;21.60;37.60
33863;DHT22;20158;51.436;-2.742;2023-04-08T14:19:23;21.70;37.50
33863;DHT22;20158;51.436;-2.742;2023-04-08T14:21:48;21.70;37.10
33863;DHT22;20158;51.436;-2.742;2023-04-08T14:24:15;21.80;37.20
33863;DHT22;20158;51.436;-2.742;2023-04-08T14:26:41;21.90;37.30
33863;DHT22;20158;51.436;-2.742;2023-04-08T14:29:07;22.00;37.20
33863;DHT22;20158;51.436;-2.742;2023-04-08T14:31:34;22.00;37.00
33863;DHT22;20158;51.436;-2.742;2023-04-08T14:34:01;22.00;37.00
33863;DHT22;20158;51.436;-2.742;2023-04-08T14:36:27;22.00;37.00
33863;DHT22;20158;51.436;-2.742;2023-04-08T14:38:54;22.00;37.10
33863;DHT22;20158;51.436;-2.742;2023-04-08T14:41:20;22.10;37.30
33863;DHT22;20158;51.436;-2.742;2023-04-08T14:43:47;22.10;37.20
33863;DHT22;20158;51.436;-2.742;2023-04-08T14:46:13;22.20;37.30
33863;DHT22;20158;51.436;-2.742;2023-04-08T14:48:40;22.30;37.20
33863;DHT22;20158;51.436;-2.742;2023-04-08T14:51:05;22.30;37.00
33863;DHT22;20158;51.436;-2.742;2023-04-08T14:53:32;22.20;36.80
33863;DHT22;20158;51.436;-2.742;2023-04-08T14:55:58;22.10;36.70
33863;DHT22;20158;51.436;-2.742;2023-04-08T14:58:24;22.00;36.60
33863;DHT22;20158;51.436;-2.742;2023-04-08T15:00:51;22.00;36.70
33863;DHT22;20158;51.436;-2.742;2023-04-08T15:03:17;21.80;36.50
33863;DHT22;20158;51.436;-2.742;2023-04-08T15:05:55;21.70;36.60
33863;DHT22;20158;51.436;-2.742;2023-04-08T15:08:21;21.50;36.40
33863;DHT22;20158;51.436;-2.742;2023-04-08T15:10:46;21.40;36.40
33863;DHT22;20158;51.436;-2.742;2023-04-08T15:13:12;21.30;36.40
33863;DHT22;20158;51.436;-2.742;2023-04-08T15:15:38;21.20;36.40
33863;DHT22;20158;51.436;-2.742;2023-04-08T15:18:04;21.10;36.30
33863;DHT22;20158;51.436;-2.742;2023-04-08T15:20:30;21.20;36.50
33863;DHT22;20158;51.436;-2.742;2023-04-08T15:22:56;21.40;36.40
33863;DHT22;20158;51.436;-2.742;2023-04-08T15:25:22;21.70;36.30
33863;DHT22;20158;51.436;-2.742;2023-04-08T15:27:48;21.90;36.20
33863;DHT22;20158;51.436;-2.742;2023-04-08T15:30:14;22.10;36.20
33863;DHT22;20158;51.436;-2.742;2023-04-08T15:32:39;22.40;36.40
33863;DHT22;20158;51.436;-2.742;2023-04-08T15:35:06;22.70;36.50
33863;DHT22;20158;51.436;-2.742;2023-04-08T15:37:33;22.90;36.40
33863;DHT22;20158;51.436;-2.742;2023-04-08T15:39:58;22.80;36.00
33863;DHT22;20158;51.436;-2.742;2023-04-08T15:42:25;22.60;35.60
33863;DHT22;20158;51.436;-2.742;2023-04-08T15:44:50;22.30;35.40